Kenosha Regional Airport
KENW : now visible

Airfield :











YOU CAN JOIN US ON...

 
LOGIN :

Register | Disclaimer

   EN    FR    IT 

 









Legend :    VFR   Marginal VFR   IFR   Intensive IFR   Very Intensive IFR
Visi :
Ceiling :
>= 8 km
>= 3000ft
5 to 8 km
1000 to 3000 ft
1500m to 5 km
500 to 1000 ft
800 to 1500m
200 to 500 ft
< 800m
< 200 ft
Symbols :   Thunderstorms  Fog  Heavy snow  Heavy precipitations  Wind > 20 kt






- Airport Elevation : 742 ft


KENW - Kenosha Regional

CURRENT METAR :
  • 180453Z AUTO 20006KT 10SM CLR 29/20 A2994 RMK AO2 SLP132 T02890200

EXPIRED METARs :
  • 180353Z AUTO 19004KT 10SM SCT065 28/19 A2993 RMK AO2 LTG DSNT N AND NE SLP128 T02780194
  • 180253Z AUTO 00000KT 10SM SCT070 27/19 A2990 RMK AO2 SLP117 T02720189 53010
  • 180153Z 19003KT 10SM CLR 29/18 A2987 RMK AO2 SLP109 T02940183
  • 180053Z 19006KT 10SM CLR 32/18 A2987 RMK AO2 SLP109 T03220183

TAF KENW
Valid from the 18 at 00:00 until the 19 at 00:00 UTC


172339Z 1800/1824 21010KT P6SM FEW060
FM180300 18006KT P6SM FEW060
FM180400 19007KT P6SM FEW060
FM181300 19011G19KT P6SM SCT040 BKN100
FM181700 19014G23KT P6SM SCT050
FM182000 20015G24KT P6SM SCT040
KZAU FIR / North America



MET'MAP, your aeronautical weather chart ! - Copyright ORBIFLY December 2007 - Disclaimer

ORBIFLY MET'MAP TEAM :

Programming & Development : Alexandra Zaïnal
Original concept : Baudouin d'Aumeries
Technical & hardware support : Manuel Goepfert
Assistance : Marc-Olivier Méhu




SOURCES & CREDITS :

   NOAA       Earth
Advisory